createdAt,value
2024-02-17T00:00:23.716Z,54.74
2024-02-17T00:01:25.476Z,55.52
2024-02-17T00:02:27.770Z,56.64
2024-02-17T00:03:29.543Z,57.65
2024-02-17T00:04:31.289Z,58.52
2024-02-17T00:05:33.155Z,59.28
2024-02-17T00:06:34.967Z,60.07
2024-02-17T00:07:36.832Z,60.84
2024-02-17T00:08:38.562Z,62.06
2024-02-17T00:09:41.139Z,65.94
2024-02-17T00:10:42.985Z,66.95
2024-02-17T00:11:44.733Z,65.15
2024-02-17T00:12:46.577Z,62.47
2024-02-17T00:13:48.430Z,59.58
2024-02-17T00:14:50.183Z,55.53
2024-02-17T00:15:52.045Z,54.12
2024-02-17T00:16:54.196Z,53.97
2024-02-17T00:17:55.955Z,54.51
2024-02-17T00:18:57.711Z,55.32
2024-02-17T00:19:59.914Z,56.07
2024-02-17T00:21:05.142Z,56.87
2024-02-17T00:22:07.233Z,57.61
2024-02-17T00:23:09.007Z,58.62
2024-02-17T00:24:11.003Z,59.74
2024-02-17T00:25:12.883Z,60.01
2024-02-17T00:26:18.755Z,60.50
2024-02-17T00:27:20.645Z,60.46
2024-02-17T00:28:27.550Z,58.84
2024-02-17T00:29:29.292Z,62.36
2024-02-17T00:30:31.061Z,67.18
2024-02-17T00:31:32.716Z,68.70
2024-02-17T00:32:34.530Z,67.24
2024-02-17T00:33:40.103Z,64.53
2024-02-17T00:34:42.893Z,62.37
2024-02-17T00:35:45.560Z,59.46
2024-02-17T00:36:47.149Z,55.92
2024-02-17T00:37:48.909Z,54.42
2024-02-17T00:38:50.580Z,54.05
2024-02-17T00:39:52.306Z,54.39
2024-02-17T00:40:54.047Z,55.13
2024-02-17T00:41:55.798Z,55.98
2024-02-17T00:42:57.384Z,56.88
2024-02-17T00:43:59.186Z,57.56
2024-02-17T00:45:00.860Z,58.15
2024-02-17T00:46:02.892Z,58.79
2024-02-17T00:47:04.842Z,59.49
2024-02-17T00:48:07.048Z,60.28
2024-02-17T00:49:12.412Z,61.17
2024-02-17T00:50:14.290Z,62.81
2024-02-17T00:51:16.933Z,66.67
2024-02-17T00:52:18.650Z,67.26
2024-02-17T00:53:20.696Z,65.23
2024-02-17T00:54:22.450Z,62.61
2024-02-17T00:55:24.253Z,59.48
2024-02-17T00:56:25.843Z,55.81
2024-02-17T00:57:27.478Z,54.06
2024-02-17T00:58:29.218Z,53.82
2024-02-17T00:59:30.937Z,54.42
2024-02-17T01:00:32.762Z,55.13
2024-02-17T01:01:39.470Z,55.93
2024-02-17T01:02:42.435Z,56.68
2024-02-17T01:03:44.284Z,57.80
2024-02-17T01:04:46.082Z,58.54
2024-02-17T01:05:47.811Z,59.18
2024-02-17T01:06:50.142Z,59.97
2024-02-17T01:07:52.295Z,60.60
2024-02-17T01:08:54.058Z,61.23
2024-02-17T01:09:56.440Z,62.61
2024-02-17T01:10:58.302Z,66.61
2024-02-17T01:12:00.112Z,67.86
2024-02-17T01:13:03.004Z,66.37
2024-02-17T01:14:04.957Z,63.90
2024-02-17T01:15:09.339Z,61.22
2024-02-17T01:16:11.021Z,58.14
2024-02-17T01:17:12.976Z,54.29
2024-02-17T01:18:14.859Z,52.57
2024-02-17T01:19:16.841Z,52.63
2024-02-17T01:20:18.826Z,53.10
2024-02-17T01:21:20.635Z,54.36
2024-02-17T01:22:22.276Z,55.74
2024-02-17T01:23:24.351Z,56.85
2024-02-17T01:24:26.734Z,57.04
2024-02-17T01:25:28.387Z,57.39
2024-02-17T01:26:30.047Z,58.16
2024-02-17T01:27:31.795Z,59.13
2024-02-17T01:28:33.634Z,59.70
2024-02-17T01:29:36.074Z,60.66
2024-02-17T01:30:37.822Z,62.22
2024-02-17T01:31:39.671Z,66.87
2024-02-17T01:32:41.451Z,68.49
2024-02-17T01:33:43.101Z,66.78
2024-02-17T01:34:44.895Z,64.11
2024-02-17T01:35:46.654Z,61.44
2024-02-17T01:36:48.411Z,59.02
2024-02-17T01:37:50.361Z,55.71
2024-02-17T01:38:52.155Z,53.44
2024-02-17T01:39:54.227Z,53.04
2024-02-17T01:40:56.520Z,53.63
2024-02-17T01:41:58.196Z,54.45
2024-02-17T01:42:59.914Z,55.36
2024-02-17T01:44:02.380Z,56.01
2024-02-17T01:45:05.219Z,56.94
2024-02-17T01:46:07.325Z,58.33
2024-02-17T01:47:10.859Z,59.55
2024-02-17T01:48:13.376Z,60.37
2024-02-17T01:49:16.271Z,62.35
2024-02-17T01:50:19.317Z,66.64
2024-02-17T01:51:21.293Z,67.71
2024-02-17T01:52:23.655Z,66.24
2024-02-17T01:53:25.689Z,63.74
2024-02-17T01:54:29.415Z,61.16
2024-02-17T01:55:31.898Z,58.42
2024-02-17T01:56:34.311Z,55.01
2024-02-17T01:57:36.415Z,53.53
2024-02-17T01:58:38.520Z,53.40
2024-02-17T01:59:42.644Z,54.09
2024-02-17T02:00:44.537Z,55.18
2024-02-17T02:01:48.938Z,56.33
2024-02-17T02:02:51.344Z,57.10
2024-02-17T02:03:53.187Z,57.98
2024-02-17T02:04:55.122Z,58.82
2024-02-17T02:05:59.857Z,59.58
2024-02-17T02:07:02.665Z,60.27
2024-02-17T02:08:05.106Z,61.22
2024-02-17T02:09:07.311Z,62.75
2024-02-17T02:10:09.320Z,66.96
2024-02-17T02:11:11.182Z,67.49
2024-02-17T02:12:13.038Z,65.22
2024-02-17T02:13:14.933Z,62.80
2024-02-17T02:14:18.334Z,60.45
2024-02-17T02:15:21.556Z,56.89
2024-02-17T02:16:24.538Z,53.65
2024-02-17T02:17:26.298Z,52.72
2024-02-17T02:18:28.133Z,52.89
2024-02-17T02:19:30.206Z,53.64
2024-02-17T02:20:31.924Z,54.59
2024-02-17T02:21:36.602Z,55.57
2024-02-17T02:22:39.937Z,56.47
2024-02-17T02:23:46.828Z,57.33
2024-02-17T02:24:50.576Z,57.77
2024-02-17T02:25:53.294Z,58.82
2024-02-17T02:26:55.115Z,59.70
2024-02-17T02:27:57.796Z,60.61
2024-02-17T02:29:02.084Z,61.32
2024-02-17T02:30:06.515Z,62.98
2024-02-17T02:31:08.239Z,67.77
2024-02-17T02:32:09.922Z,68.11
2024-02-17T02:33:11.914Z,65.75
2024-02-17T02:34:13.972Z,63.07
2024-02-17T02:35:16.659Z,60.68
2024-02-17T02:36:19.141Z,58.09
2024-02-17T02:37:21.694Z,54.82
2024-02-17T02:38:23.385Z,53.65
2024-02-17T02:39:24.995Z,53.65
2024-02-17T02:40:26.734Z,54.17
2024-02-17T02:41:28.334Z,54.88
2024-02-17T02:42:30.273Z,55.60
2024-02-17T02:43:32.001Z,56.17
2024-02-17T02:44:33.821Z,56.78
2024-02-17T02:45:35.777Z,57.68
2024-02-17T02:46:37.629Z,58.44
2024-02-17T02:47:39.350Z,59.28
2024-02-17T02:48:41.177Z,59.69
2024-02-17T02:49:43.062Z,59.85
2024-02-17T02:50:44.826Z,60.59
2024-02-17T02:51:46.674Z,61.49
2024-02-17T02:52:48.545Z,63.23
2024-02-17T02:53:50.205Z,67.39
2024-02-17T02:54:51.998Z,68.05
2024-02-17T02:55:54.590Z,66.10
2024-02-17T02:56:56.266Z,63.61
2024-02-17T02:57:57.902Z,61.36
2024-02-17T02:58:59.727Z,58.67
2024-02-17T03:00:02.145Z,55.34
2024-02-17T03:01:04.595Z,53.94
2024-02-17T03:02:06.533Z,53.88
2024-02-17T03:03:08.492Z,54.16
2024-02-17T03:04:10.510Z,54.88
2024-02-17T03:05:12.476Z,55.74
2024-02-17T03:06:14.426Z,56.55
2024-02-17T03:07:16.493Z,57.17
2024-02-17T03:08:19.107Z,58.02
2024-02-17T03:09:23.976Z,58.86
2024-02-17T03:10:25.944Z,59.24
2024-02-17T03:11:29.508Z,59.62
2024-02-17T03:12:31.315Z,60.29
2024-02-17T03:13:35.576Z,61.06
2024-02-17T03:14:38.772Z,63.32
2024-02-17T03:15:40.635Z,67.51
2024-02-17T03:16:42.904Z,68.20
2024-02-17T03:17:45.299Z,66.62
2024-02-17T03:18:47.335Z,64.10
2024-02-17T03:19:51.283Z,61.35
2024-02-17T03:20:53.454Z,58.58
2024-02-17T03:21:55.455Z,55.22
2024-02-17T03:22:57.469Z,54.09
2024-02-17T03:23:59.297Z,54.19
2024-02-17T03:25:01.079Z,54.95
2024-02-17T03:26:02.987Z,55.95
2024-02-17T03:27:05.332Z,56.80
2024-02-17T03:28:07.509Z,57.61
2024-02-17T03:29:09.163Z,58.57
2024-02-17T03:30:11.003Z,59.38
2024-02-17T03:31:13.632Z,60.40
2024-02-17T03:32:15.428Z,60.90
2024-02-17T03:33:17.246Z,62.45
2024-02-17T03:34:19.245Z,66.75
2024-02-17T03:35:21.178Z,67.75
2024-02-17T03:36:22.916Z,66.18
2024-02-17T03:37:26.639Z,63.75
2024-02-17T03:38:28.372Z,61.61
2024-02-17T03:39:30.137Z,59.34
2024-02-17T03:40:33.501Z,55.64
2024-02-17T03:41:35.163Z,54.23
2024-02-17T03:42:36.973Z,54.11
2024-02-17T03:43:38.587Z,54.60
2024-02-17T03:44:40.303Z,55.47
2024-02-17T03:45:42.102Z,56.38
2024-02-17T03:46:43.819Z,57.09
2024-02-17T03:47:45.596Z,57.67
2024-02-17T03:48:47.395Z,58.24
2024-02-17T03:49:50.118Z,59.05
2024-02-17T03:50:52.168Z,59.65
2024-02-17T03:51:53.906Z,60.23
2024-02-17T03:52:55.709Z,60.82
2024-02-17T03:53:57.362Z,61.62
2024-02-17T03:54:59.015Z,63.53
2024-02-17T03:56:01.667Z,67.66
2024-02-17T03:57:04.735Z,68.99
2024-02-17T03:58:06.518Z,67.41
2024-02-17T03:59:08.245Z,65.01
2024-02-17T04:00:14.587Z,62.62
2024-02-17T04:01:17.337Z,60.75
2024-02-17T04:02:19.151Z,58.13
2024-02-17T04:03:20.803Z,55.00
2024-02-17T04:04:25.789Z,54.15
2024-02-17T04:05:27.554Z,54.24
2024-02-17T04:06:29.502Z,55.04
2024-02-17T04:07:31.329Z,55.86
2024-02-17T04:08:33.237Z,56.90
2024-02-17T04:09:36.238Z,58.05
2024-02-17T04:10:39.652Z,59.07
2024-02-17T04:11:41.578Z,59.85
2024-02-17T04:12:43.761Z,60.91
2024-02-17T04:13:45.617Z,62.56
2024-02-17T04:14:47.771Z,66.64
2024-02-17T04:15:49.638Z,67.91
2024-02-17T04:16:51.479Z,67.01
2024-02-17T04:17:55.288Z,64.81
2024-02-17T04:18:57.125Z,62.90
2024-02-17T04:19:59.422Z,61.12
2024-02-17T04:21:01.347Z,58.86
2024-02-17T04:22:03.615Z,55.85
2024-02-17T04:23:09.326Z,54.64
2024-02-17T04:24:11.089Z,54.62
2024-02-17T04:25:13.660Z,55.46
2024-02-17T04:26:15.501Z,56.33
2024-02-17T04:27:17.381Z,57.43
2024-02-17T04:28:19.319Z,58.40
2024-02-17T04:29:21.958Z,59.44
2024-02-17T04:30:23.843Z,60.26
2024-02-17T04:31:25.503Z,61.11
2024-02-17T04:32:27.097Z,62.46
2024-02-17T04:33:29.288Z,66.20
2024-02-17T04:34:31.227Z,67.78
2024-02-17T04:35:33.177Z,66.64
2024-02-17T04:36:34.989Z,64.55
2024-02-17T04:37:36.893Z,62.46
2024-02-17T04:38:39.902Z,60.46
2024-02-17T04:39:41.677Z,58.34
2024-02-17T04:40:43.459Z,55.09
2024-02-17T04:41:45.218Z,53.97
2024-02-17T04:42:47.013Z,53.88
2024-02-17T04:43:48.814Z,54.83
2024-02-17T04:44:50.395Z,55.30
2024-02-17T04:45:52.854Z,56.44
2024-02-17T04:46:54.666Z,57.88
2024-02-17T04:47:56.325Z,58.67
2024-02-17T04:48:58.193Z,59.49
2024-02-17T04:50:00.013Z,60.36
2024-02-17T04:51:01.680Z,61.32
2024-02-17T04:52:04.129Z,62.81
2024-02-17T04:53:05.923Z,66.15
2024-02-17T04:54:08.040Z,67.06
2024-02-17T04:55:10.401Z,64.72
2024-02-17T04:56:12.093Z,63.59
2024-02-17T04:57:13.726Z,61.57
2024-02-17T04:58:18.936Z,59.86
2024-02-17T04:59:21.830Z,56.34
2024-02-17T05:00:23.682Z,54.97
2024-02-17T05:01:25.578Z,54.97
2024-02-17T05:02:27.345Z,55.60
2024-02-17T05:03:29.280Z,56.45
2024-02-17T05:04:31.219Z,57.51
2024-02-17T05:05:33.150Z,58.48
2024-02-17T05:06:35.107Z,59.72
2024-02-17T05:07:36.890Z,60.35
2024-02-17T05:08:38.563Z,61.51
2024-02-17T05:09:40.165Z,62.93
2024-02-17T05:10:41.866Z,66.68
2024-02-17T05:11:43.680Z,67.54
2024-02-17T05:12:46.404Z,66.60
2024-02-17T05:13:48.340Z,65.05
2024-02-17T05:14:50.164Z,61.36
2024-02-17T05:15:51.835Z,59.83
2024-02-17T05:16:53.563Z,56.44
2024-02-17T05:17:55.317Z,55.08
2024-02-17T05:18:57.125Z,55.17
2024-02-17T05:19:59.020Z,55.56
2024-02-17T05:21:03.393Z,56.71
2024-02-17T05:22:05.863Z,57.46
2024-02-17T05:23:07.649Z,58.49
2024-02-17T05:24:10.726Z,59.85
2024-02-17T05:25:12.432Z,60.78
2024-02-17T05:26:14.089Z,62.02
2024-02-17T05:27:15.694Z,65.85
2024-02-17T05:28:17.484Z,67.26
2024-02-17T05:29:19.229Z,66.27
2024-02-17T05:30:21.814Z,64.36
2024-02-17T05:31:28.524Z,62.48
2024-02-17T05:32:30.485Z,61.01
2024-02-17T05:33:32.573Z,58.29
2024-02-17T05:34:35.641Z,55.19
2024-02-17T05:35:37.498Z,54.27
2024-02-17T05:36:39.268Z,54.13
2024-02-17T05:37:40.890Z,54.64
2024-02-17T05:38:42.549Z,55.56
2024-02-17T05:39:44.446Z,56.47
2024-02-17T05:40:46.365Z,57.93
2024-02-17T05:41:48.087Z,58.68
2024-02-17T05:42:50.256Z,59.69
2024-02-17T05:43:53.957Z,60.92
2024-02-17T05:44:55.721Z,62.23
2024-02-17T05:45:57.405Z,65.25
2024-02-17T05:46:59.213Z,67.23
2024-02-17T05:48:01.085Z,66.16
2024-02-17T05:49:03.091Z,64.20
2024-02-17T05:50:06.151Z,61.98
2024-02-17T05:51:07.832Z,59.29
2024-02-17T05:52:09.469Z,56.40
2024-02-17T05:53:11.314Z,54.84
2024-02-17T05:54:12.986Z,54.77
2024-02-17T05:55:14.926Z,55.16
2024-02-17T05:56:16.585Z,56.05
2024-02-17T05:57:18.350Z,57.16
2024-02-17T05:58:20.030Z,58.04
2024-02-17T05:59:22.214Z,58.76
2024-02-17T06:00:23.801Z,59.71
2024-02-17T06:01:25.439Z,60.39
2024-02-17T06:02:27.142Z,61.30
2024-02-17T06:03:28.939Z,62.84
2024-02-17T06:04:31.331Z,65.98
2024-02-17T06:05:34.317Z,67.60
2024-02-17T06:06:36.801Z,65.96
2024-02-17T06:07:38.747Z,63.22
2024-02-17T06:08:41.223Z,61.56
2024-02-17T06:09:42.863Z,59.41
2024-02-17T06:10:44.870Z,56.29
2024-02-17T06:11:48.535Z,54.87
2024-02-17T06:12:50.814Z,54.71
2024-02-17T06:13:54.881Z,55.29
2024-02-17T06:14:56.823Z,56.32
2024-02-17T06:15:58.670Z,57.13
2024-02-17T06:17:05.914Z,58.14
2024-02-17T06:18:26.303Z,58.92
2024-02-17T06:19:47.038Z,59.04
2024-02-17T06:21:07.853Z,59.89
2024-02-17T06:22:09.498Z,62.17
2024-02-17T06:23:11.298Z,66.72
2024-02-17T06:24:13.087Z,67.22
2024-02-17T06:25:14.721Z,65.93
2024-02-17T06:26:27.623Z,63.77
2024-02-17T06:27:29.274Z,62.03
2024-02-17T06:28:31.052Z,58.46
2024-02-17T06:29:32.866Z,55.12
2024-02-17T06:30:34.484Z,53.90
2024-02-17T06:31:39.157Z,54.03
2024-02-17T06:32:42.490Z,54.25
2024-02-17T06:33:44.648Z,55.53
2024-02-17T06:34:48.127Z,56.19
2024-02-17T06:35:49.881Z,57.64
2024-02-17T06:36:52.071Z,58.65
2024-02-17T06:37:54.128Z,59.30
2024-02-17T06:38:55.873Z,60.47
2024-02-17T06:39:57.580Z,61.45
2024-02-17T06:40:59.365Z,62.73
2024-02-17T06:42:01.128Z,66.33
2024-02-17T06:43:02.895Z,67.20
2024-02-17T06:44:04.922Z,65.83
2024-02-17T06:45:07.302Z,63.75
2024-02-17T06:46:09.287Z,61.52
2024-02-17T06:47:11.090Z,59.28
2024-02-17T06:48:12.978Z,55.99
2024-02-17T06:49:14.785Z,54.78
2024-02-17T06:50:24.348Z,54.86
2024-02-17T06:51:28.527Z,55.07
2024-02-17T06:52:30.377Z,56.43
2024-02-17T06:53:32.043Z,57.44
2024-02-17T06:54:33.914Z,58.39
2024-02-17T06:55:36.119Z,59.19
2024-02-17T06:56:37.870Z,60.12
2024-02-17T06:57:39.527Z,61.31
2024-02-17T06:58:42.687Z,62.80
2024-02-17T06:59:44.519Z,66.11
2024-02-17T07:00:46.301Z,66.44
2024-02-17T07:01:48.189Z,64.81
2024-02-17T07:02:49.892Z,63.22
2024-02-17T07:03:51.712Z,60.99
2024-02-17T07:04:54.297Z,58.61
2024-02-17T07:05:56.619Z,55.67
2024-02-17T07:06:58.308Z,54.40
2024-02-17T07:08:00.475Z,54.59
2024-02-17T07:09:02.537Z,55.11
2024-02-17T07:10:05.383Z,55.87
2024-02-17T07:11:07.178Z,56.91
2024-02-17T07:12:09.125Z,58.24
2024-02-17T07:13:11.095Z,59.51
2024-02-17T07:14:13.566Z,60.66
2024-02-17T07:15:15.413Z,61.09
2024-02-17T07:16:17.434Z,62.18
2024-02-17T07:17:19.087Z,64.67
2024-02-17T07:18:20.817Z,66.02
2024-02-17T07:19:22.730Z,64.42
2024-02-17T07:20:24.627Z,62.77
2024-02-17T07:21:27.343Z,60.49
2024-02-17T07:22:30.166Z,58.30
2024-02-17T07:23:32.121Z,55.03
2024-02-17T07:24:33.802Z,53.76
2024-02-17T07:25:37.177Z,54.31
2024-02-17T07:26:45.590Z,54.59
2024-02-17T07:27:48.276Z,55.33
2024-02-17T07:28:50.083Z,56.32
2024-02-17T07:29:51.824Z,57.21
2024-02-17T07:30:53.847Z,58.28
2024-02-17T07:31:56.826Z,59.20
2024-02-17T07:32:58.669Z,59.86
2024-02-17T07:34:01.180Z,60.95
2024-02-17T07:35:04.860Z,61.99
2024-02-17T07:36:07.380Z,65.33
2024-02-17T07:37:09.120Z,66.42
2024-02-17T07:38:12.247Z,64.78
2024-02-17T07:39:14.141Z,62.56
2024-02-17T07:40:15.880Z,59.60
2024-02-17T07:41:17.504Z,55.88
2024-02-17T07:42:19.171Z,54.38
2024-02-17T07:43:21.420Z,54.06
2024-02-17T07:44:24.922Z,54.50
2024-02-17T07:45:27.768Z,55.16
2024-02-17T07:46:29.629Z,55.87
2024-02-17T07:47:35.330Z,56.96
2024-02-17T07:48:37.271Z,56.78
2024-02-17T07:49:39.624Z,55.35
2024-02-17T07:50:41.448Z,58.21
2024-02-17T07:51:44.676Z,59.63
2024-02-17T07:52:46.483Z,60.26
2024-02-17T07:53:48.514Z,60.93
2024-02-17T07:54:50.379Z,61.25
2024-02-17T07:55:52.627Z,62.76
2024-02-17T07:56:54.581Z,66.07
2024-02-17T07:57:56.287Z,66.86
2024-02-17T07:58:58.077Z,65.15
2024-02-17T07:59:59.817Z,62.96
2024-02-17T08:01:01.699Z,59.85
2024-02-17T08:02:03.532Z,56.25
2024-02-17T08:03:05.615Z,54.45
2024-02-17T08:04:07.400Z,54.01
2024-02-17T08:05:09.787Z,54.40
2024-02-17T08:06:12.324Z,55.25
2024-02-17T08:07:14.688Z,56.01
2024-02-17T08:08:16.877Z,56.79
2024-02-17T08:09:18.633Z,58.25
2024-02-17T08:10:20.482Z,58.71
2024-02-17T08:11:22.122Z,59.24
2024-02-17T08:12:24.875Z,60.10
2024-02-17T08:13:27.162Z,60.76
2024-02-17T08:14:30.592Z,61.07
2024-02-17T08:15:32.757Z,61.57
2024-02-17T08:16:34.393Z,62.84
2024-02-17T08:17:36.647Z,65.51
2024-02-17T08:18:43.642Z,64.91
2024-02-17T08:19:45.634Z,62.33
2024-02-17T08:20:48.293Z,60.92
2024-02-17T08:21:50.088Z,59.57
2024-02-17T08:22:51.993Z,57.08
2024-02-17T08:23:53.683Z,55.27
2024-02-17T08:24:55.587Z,54.27
2024-02-17T08:25:57.248Z,54.47
2024-02-17T08:26:58.995Z,55.54
2024-02-17T08:28:00.625Z,56.14
2024-02-17T08:29:02.243Z,55.79
2024-02-17T08:30:04.841Z,56.40
2024-02-17T08:31:06.595Z,56.32
2024-02-17T08:32:08.281Z,57.38
2024-02-17T08:33:10.118Z,57.74
2024-02-17T08:34:12.110Z,58.07
2024-02-17T08:35:14.029Z,58.72
2024-02-17T08:36:17.470Z,59.40
2024-02-17T08:37:19.538Z,60.27
2024-02-17T08:38:21.695Z,59.90
2024-02-17T08:39:23.412Z,61.44
2024-02-17T08:40:25.916Z,61.32
2024-02-17T08:41:29.219Z,62.24
2024-02-17T08:42:30.871Z,63.06
2024-02-17T08:43:32.530Z,64.79
2024-02-17T08:44:34.233Z,64.35
2024-02-17T08:45:36.405Z,61.80
2024-02-17T08:46:38.135Z,58.47
2024-02-17T08:47:39.905Z,55.51
2024-02-17T08:48:41.792Z,53.75
2024-02-17T08:49:43.868Z,54.20
2024-02-17T08:50:45.944Z,53.37
2024-02-17T08:51:47.731Z,54.39
2024-02-17T08:52:49.868Z,54.77
2024-02-17T08:53:51.628Z,56.06
2024-02-17T08:54:53.308Z,56.94
2024-02-17T08:55:55.238Z,58.14
2024-02-17T08:56:56.852Z,58.14
2024-02-17T08:57:58.650Z,58.98
2024-02-17T08:59:00.383Z,59.54
2024-02-17T09:00:04.023Z,60.86
2024-02-17T09:01:07.219Z,61.36
2024-02-17T09:02:09.617Z,62.19
2024-02-17T09:03:12.674Z,62.48
2024-02-17T09:04:14.654Z,63.42
2024-02-17T09:05:17.379Z,58.01
2024-02-17T09:06:19.779Z,55.25
2024-02-17T09:07:21.619Z,53.56
2024-02-17T09:08:23.335Z,53.13
2024-02-17T09:09:25.012Z,53.65
2024-02-17T09:10:26.840Z,54.77
2024-02-17T09:11:28.431Z,55.00
2024-02-17T09:12:30.141Z,55.86
2024-02-17T09:13:31.896Z,56.54
2024-02-17T09:14:35.754Z,57.65
2024-02-17T09:15:37.507Z,58.49
2024-02-17T09:16:39.271Z,58.99
2024-02-17T09:17:43.369Z,59.59
2024-02-17T09:18:45.415Z,60.07
2024-02-17T09:19:47.202Z,60.98
2024-02-17T09:20:50.571Z,61.44
2024-02-17T09:21:55.262Z,61.48
2024-02-17T09:22:57.128Z,62.47
2024-02-17T09:23:58.715Z,64.87
2024-02-17T09:25:00.494Z,65.54
2024-02-17T09:26:02.168Z,62.10
2024-02-17T09:27:06.000Z,61.79
2024-02-17T09:28:08.222Z,58.67
2024-02-17T09:29:10.080Z,55.15
2024-02-17T09:30:12.342Z,54.11
2024-02-17T09:31:14.103Z,54.29
2024-02-17T09:32:15.829Z,54.93
2024-02-17T09:33:17.698Z,56.29
2024-02-17T09:34:19.605Z,57.17
2024-02-17T09:35:21.500Z,57.93
2024-02-17T09:36:26.852Z,58.76
2024-02-17T09:37:28.668Z,59.50
2024-02-17T09:38:30.470Z,60.01
2024-02-17T09:39:33.343Z,61.26
2024-02-17T09:40:35.965Z,62.05
2024-02-17T09:41:38.139Z,62.89
2024-02-17T09:42:40.151Z,63.67
2024-02-17T09:43:42.422Z,63.67
2024-02-17T09:44:44.508Z,60.52
2024-02-17T09:45:47.509Z,58.69
2024-02-17T09:46:49.238Z,57.30
2024-02-17T09:47:55.231Z,57.27
2024-02-17T09:49:01.780Z,57.50
2024-02-17T09:50:04.886Z,58.10
2024-02-17T09:51:08.116Z,59.77
2024-02-17T09:52:11.519Z,60.94
2024-02-17T09:53:13.838Z,61.42
2024-02-17T09:54:16.741Z,63.14
2024-02-17T09:55:18.463Z,65.50
2024-02-17T09:56:22.979Z,65.09
2024-02-17T09:57:29.909Z,63.03
2024-02-17T09:58:38.171Z,61.75
2024-02-17T09:59:39.984Z,58.72
2024-02-17T10:00:41.963Z,56.36
2024-02-17T10:01:45.960Z,55.40
2024-02-17T10:02:50.076Z,55.80
2024-02-17T10:03:54.575Z,56.38
2024-02-17T10:04:58.885Z,57.59
2024-02-17T10:06:14.268Z,58.34
2024-02-17T10:07:16.261Z,58.50
2024-02-17T10:08:18.133Z,59.70
2024-02-17T10:09:24.454Z,60.83
2024-02-17T10:10:26.337Z,62.56
2024-02-17T10:11:28.229Z,66.06
2024-02-17T10:12:29.867Z,66.25
2024-02-17T10:13:32.274Z,65.04
2024-02-17T10:14:34.068Z,62.30
2024-02-17T10:15:37.021Z,60.71
2024-02-17T10:16:38.901Z,58.41
2024-02-17T10:17:41.872Z,54.83
2024-02-17T10:18:46.055Z,54.35
2024-02-17T10:19:47.941Z,54.88
2024-02-17T10:20:49.780Z,55.85
2024-02-17T10:21:51.680Z,57.08
2024-02-17T10:22:53.719Z,58.44
2024-02-17T10:23:55.749Z,59.21
2024-02-17T10:25:01.071Z,60.49
2024-02-17T10:26:03.779Z,61.17
2024-02-17T10:27:07.070Z,62.82
2024-02-17T10:28:08.950Z,64.27
2024-02-17T10:29:17.361Z,65.08
2024-02-17T10:30:21.945Z,65.39
2024-02-17T10:31:24.950Z,60.49
2024-02-17T10:32:26.806Z,57.59
2024-02-17T10:33:29.331Z,56.26
2024-02-17T10:34:31.432Z,55.92
2024-02-17T10:35:34.510Z,56.66
2024-02-17T10:36:36.992Z,57.65
2024-02-17T10:37:40.717Z,59.15
2024-02-17T10:38:43.160Z,59.78
2024-02-17T10:39:46.907Z,60.78
2024-02-17T10:40:48.696Z,62.73
2024-02-17T10:41:50.466Z,64.68
2024-02-17T10:42:53.152Z,64.71
2024-02-17T10:43:54.985Z,62.79
2024-02-17T10:44:58.141Z,59.83
2024-02-17T10:46:03.954Z,57.47
2024-02-17T10:47:06.426Z,56.69
2024-02-17T10:48:11.936Z,57.22
2024-02-17T10:49:27.122Z,57.92
2024-02-17T10:50:29.796Z,59.09
2024-02-17T10:51:32.220Z,60.69
2024-02-17T10:52:43.786Z,62.19
2024-02-17T10:53:50.241Z,63.74
2024-02-17T10:55:05.712Z,63.46
2024-02-17T10:56:15.023Z,62.15
2024-02-17T10:57:21.027Z,61.24
2024-02-17T10:58:23.535Z,58.92
2024-02-17T10:59:26.019Z,57.46
2024-02-17T11:00:28.609Z,56.76
2024-02-17T11:01:31.967Z,57.11
2024-02-17T11:02:34.850Z,58.13
2024-02-17T11:03:41.041Z,59.41
2024-02-17T11:04:44.868Z,59.84
2024-02-17T11:05:49.522Z,61.03
2024-02-17T11:06:52.796Z,63.17
2024-02-17T11:07:55.525Z,66.62
2024-02-17T11:08:57.983Z,67.56
2024-02-17T11:10:07.188Z,65.76
2024-02-17T11:11:30.055Z,63.19
2024-02-17T11:12:35.932Z,61.64
2024-02-17T11:13:37.844Z,59.20
2024-02-17T11:14:42.563Z,56.17
2024-02-17T11:16:05.655Z,55.49
2024-02-17T11:17:10.300Z,55.77
2024-02-17T11:18:14.360Z,55.78
2024-02-17T11:19:22.894Z,58.67
2024-02-17T11:20:30.554Z,59.68
2024-02-17T11:21:39.160Z,61.48
2024-02-17T11:22:46.967Z,63.38
2024-02-17T11:23:49.595Z,65.13
2024-02-17T11:24:51.440Z,64.48
2024-02-17T11:25:53.732Z,63.44
2024-02-17T11:26:56.289Z,61.86
2024-02-17T11:28:00.004Z,60.64
2024-02-17T11:29:05.712Z,59.24
2024-02-17T11:30:08.265Z,56.75
2024-02-17T11:31:11.882Z,56.14
2024-02-17T11:32:15.186Z,56.83
2024-02-17T11:33:18.486Z,57.61
2024-02-17T11:34:20.810Z,59.04
2024-02-17T11:35:24.713Z,60.70
2024-02-17T11:36:31.384Z,61.09
2024-02-17T11:37:34.361Z,62.73
2024-02-17T11:38:36.919Z,65.96
2024-02-17T11:39:40.678Z,66.18
2024-02-17T11:40:42.537Z,65.57
2024-02-17T11:41:44.833Z,63.58
2024-02-17T11:42:47.750Z,61.43
2024-02-17T11:43:50.680Z,59.69
2024-02-17T11:44:54.206Z,56.98
2024-02-17T11:45:56.891Z,56.21
2024-02-17T11:46:58.669Z,56.44
2024-02-17T11:48:00.319Z,57.72
2024-02-17T11:49:11.846Z,58.52
2024-02-17T11:50:14.758Z,59.75
2024-02-17T11:51:28.593Z,60.60
2024-02-17T11:52:34.372Z,60.80
2024-02-17T11:53:36.198Z,63.56
2024-02-17T11:54:43.933Z,66.43
2024-02-17T11:55:45.629Z,66.32
2024-02-17T11:56:49.408Z,65.43
2024-02-17T11:57:56.934Z,64.17
2024-02-17T11:58:59.152Z,62.42
2024-02-17T12:00:01.000Z,60.42
2024-02-17T12:01:02.819Z,58.25
2024-02-17T12:02:05.088Z,56.08
2024-02-17T12:03:06.842Z,55.11
2024-02-17T12:04:09.686Z,55.54
2024-02-17T12:05:11.484Z,56.74
2024-02-17T12:06:13.642Z,58.49
2024-02-17T12:07:15.646Z,58.93
2024-02-17T12:08:18.277Z,59.90
2024-02-17T12:09:19.929Z,61.00
2024-02-17T12:10:22.292Z,62.99
2024-02-17T12:11:24.175Z,65.05
2024-02-17T12:12:26.609Z,65.14
2024-02-17T12:13:29.058Z,64.37
2024-02-17T12:14:30.805Z,62.73
2024-02-17T12:15:32.699Z,61.33
2024-02-17T12:16:35.317Z,59.29
2024-02-17T12:17:44.395Z,56.87
2024-02-17T12:18:46.328Z,55.67
2024-02-17T12:19:48.777Z,56.38
2024-02-17T12:20:52.074Z,57.50
2024-02-17T12:21:55.175Z,58.80
2024-02-17T12:22:59.122Z,59.85
2024-02-17T12:24:01.099Z,61.43
2024-02-17T12:25:04.682Z,62.78
2024-02-17T12:26:13.889Z,65.27
2024-02-17T12:27:23.778Z,66.74
2024-02-17T12:28:26.732Z,64.87
2024-02-17T12:29:29.648Z,62.70
2024-02-17T12:30:34.222Z,61.19
2024-02-17T12:31:36.657Z,59.81
2024-02-17T12:32:40.674Z,57.95
2024-02-17T12:33:51.325Z,55.72
2024-02-17T12:34:53.943Z,55.08
2024-02-17T12:35:55.827Z,56.21
2024-02-17T12:37:00.364Z,57.43
2024-02-17T12:38:02.334Z,58.28
2024-02-17T12:39:08.209Z,59.84
2024-02-17T12:40:15.604Z,60.81
2024-02-17T12:41:18.422Z,62.93
2024-02-17T12:42:20.180Z,65.69
2024-02-17T12:43:29.452Z,66.16
2024-02-17T12:44:36.550Z,65.45
2024-02-17T12:45:38.698Z,62.47
2024-02-17T12:46:40.543Z,60.86
2024-02-17T12:47:45.159Z,59.28
2024-02-17T12:48:51.135Z,57.02
2024-02-17T12:49:53.170Z,56.12
2024-02-17T12:50:55.030Z,57.44
2024-02-17T12:51:58.730Z,58.44
2024-02-17T12:53:22.357Z,59.80
2024-02-17T12:54:26.038Z,59.63
2024-02-17T12:55:28.591Z,62.80
2024-02-17T12:56:30.283Z,65.70
2024-02-17T12:57:32.106Z,66.47
2024-02-17T12:58:33.907Z,65.34
2024-02-17T12:59:36.031Z,63.34
2024-02-17T13:00:41.210Z,61.84
2024-02-17T13:01:43.617Z,60.36
2024-02-17T13:02:45.742Z,58.33
2024-02-17T13:03:48.576Z,55.92
2024-02-17T13:04:50.703Z,55.41
2024-02-17T13:05:52.506Z,56.22
2024-02-17T13:06:54.557Z,57.59
2024-02-17T13:07:56.861Z,58.55
2024-02-17T13:09:01.714Z,59.99
2024-02-17T13:10:05.903Z,60.71
2024-02-17T13:11:08.176Z,62.69
2024-02-17T13:12:10.073Z,66.13
2024-02-17T13:13:11.878Z,66.43
2024-02-17T13:14:13.971Z,64.83
2024-02-17T13:15:21.147Z,63.04
2024-02-17T13:16:23.074Z,61.44
2024-02-17T13:17:24.690Z,59.65
2024-02-17T13:18:26.574Z,57.30
2024-02-17T13:19:31.911Z,56.40
2024-02-17T13:20:33.723Z,56.49
2024-02-17T13:21:36.004Z,58.37
2024-02-17T13:22:37.846Z,59.14
2024-02-17T13:23:39.577Z,60.76
2024-02-17T13:24:42.666Z,61.64
2024-02-17T13:25:44.407Z,63.34
2024-02-17T13:26:46.362Z,66.88
2024-02-17T13:27:48.036Z,66.46
2024-02-17T13:28:49.829Z,64.87